createdAt,value
2019-02-24T00:00:49.880Z,0.18
2019-02-24T00:03:20.057Z,0.13
2019-02-24T00:06:04.961Z,0.10
2019-02-24T00:08:41.899Z,0.19
2019-02-24T00:11:12.092Z,-0.42
2019-02-24T00:13:42.326Z,0.19
2019-02-24T00:16:13.136Z,0.13
2019-02-24T00:18:43.354Z,0.12
2019-02-24T00:21:13.531Z,0.02
2019-02-24T00:23:43.795Z,0.00
2019-02-24T00:26:14.050Z,-0.05
2019-02-24T00:29:03.559Z,-0.06
2019-02-24T00:31:53.066Z,-0.03
2019-02-24T00:34:23.293Z,0.02
2019-02-24T00:36:53.577Z,0.10
2019-02-24T00:39:42.882Z,0.05
2019-02-24T00:42:13.367Z,0.04
2019-02-24T00:45:04.454Z,-0.03
2019-02-24T00:47:35.458Z,0.00
2019-02-24T00:50:05.978Z,-0.08
2019-02-24T00:52:39.507Z,-0.12
2019-02-24T00:55:09.760Z,-0.09
2019-02-24T00:57:59.550Z,-0.19
2019-02-24T01:00:48.742Z,-0.24
2019-02-24T01:03:19.397Z,-0.33
2019-02-24T01:06:09.885Z,-0.44
2019-02-24T01:08:41.482Z,-0.43
2019-02-24T01:11:11.860Z,-0.45
2019-02-24T01:13:51.193Z,-0.31
2019-02-24T01:16:41.169Z,-0.37
2019-02-24T01:19:11.571Z,-0.45
2019-02-24T01:22:19.902Z,-0.61
2019-02-24T01:24:50.953Z,-0.55
2019-02-24T01:27:40.386Z,-0.61
2019-02-24T01:30:29.848Z,-0.60
2019-02-24T01:33:19.553Z,-0.51
2019-02-24T01:35:51.089Z,-0.55
2019-02-24T01:38:32.634Z,-0.64
2019-02-24T01:41:03.098Z,-0.61
2019-02-24T01:43:53.270Z,-0.71
2019-02-24T01:46:24.518Z,-0.71
2019-02-24T01:49:14.054Z,-0.70
2019-02-24T01:51:44.626Z,-0.71
2019-02-24T01:54:34.454Z,-0.71
2019-02-24T01:57:24.028Z,-0.67
2019-02-24T01:59:59.889Z,-0.74
2019-02-24T02:02:30.346Z,-0.70
2019-02-24T02:05:02.056Z,-0.73
2019-02-24T02:07:32.967Z,-0.82
2019-02-24T02:10:03.839Z,-0.83
2019-02-24T02:12:54.699Z,-0.81
2019-02-24T02:15:44.219Z,-0.89
2019-02-24T02:18:34.024Z,-0.97
2019-02-24T02:21:05.423Z,-0.95
2019-02-24T02:23:39.318Z,-0.85
2019-02-24T02:26:10.600Z,-0.89
2019-02-24T02:28:46.992Z,-0.85
2019-02-24T02:31:36.588Z,-0.92
2019-02-24T02:34:07.784Z,-0.93
2019-02-24T02:36:57.577Z,-0.87
2019-02-24T02:39:28.913Z,-0.93
2019-02-24T02:42:18.565Z,-0.90
2019-02-24T02:45:09.717Z,-0.97
2019-02-24T02:47:59.025Z,-0.95
2019-02-24T02:50:48.973Z,-0.96
2019-02-24T02:56:09.226Z,-0.96
2019-02-24T02:58:40.139Z,-0.92
2019-02-24T03:01:10.360Z,-0.95
2019-02-24T03:03:59.807Z,-0.97
2019-02-24T03:07:08.349Z,-1.05
2019-02-24T03:09:57.798Z,-1.12
2019-02-24T03:12:47.470Z,-1.16
2019-02-24T03:15:17.587Z,-1.17
2019-02-24T03:18:07.061Z,-1.21
2019-02-24T03:20:56.214Z,-1.26
2019-02-24T03:23:26.654Z,-1.24
2019-02-24T03:26:16.132Z,-1.24
2019-02-24T03:28:48.434Z,-1.16
2019-02-24T03:31:18.901Z,-1.12
2019-02-24T03:34:08.456Z,-1.20
2019-02-24T03:36:38.749Z,-1.21
2019-02-24T03:39:22.425Z,-1.24
2019-02-24T03:41:53.335Z,-1.23
2019-02-24T03:44:42.870Z,-1.23
2019-02-24T03:47:13.099Z,-1.30
2019-02-24T03:50:02.619Z,-1.27
2019-02-24T03:52:55.772Z,-1.23
2019-02-24T03:55:26.084Z,-1.24
2019-02-24T03:57:56.517Z,-1.27
2019-02-24T04:00:46.031Z,-1.28
2019-02-24T04:03:35.360Z,-1.33
2019-02-24T04:06:24.581Z,-1.36
2019-02-24T04:08:54.643Z,-1.40
2019-02-24T04:11:44.977Z,-1.41
2019-02-24T04:14:34.148Z,-1.40
2019-02-24T04:17:04.336Z,-1.39
2019-02-24T04:19:53.887Z,-1.50
2019-02-24T04:22:43.579Z,-1.47
2019-02-24T04:25:14.381Z,-1.37
2019-02-24T04:28:03.556Z,-1.41
2019-02-24T04:30:33.961Z,-1.35
2019-02-24T04:33:04.068Z,-1.39
2019-02-24T04:35:53.580Z,-1.54
2019-02-24T04:38:23.764Z,-1.58
2019-02-24T04:41:13.244Z,-1.58
2019-02-24T04:44:02.798Z,-1.56
2019-02-24T04:46:52.440Z,-1.53
2019-02-24T04:52:32.728Z,-1.57
2019-02-24T04:55:02.856Z,-1.50
2019-02-24T04:57:33.291Z,-1.60
2019-02-24T05:00:22.503Z,-1.71
2019-02-24T05:02:52.909Z,-1.78
2019-02-24T05:05:23.144Z,-1.75
2019-02-24T05:07:55.726Z,-1.77
2019-02-24T05:10:45.282Z,-1.82
2019-02-24T05:13:15.468Z,-1.83
2019-02-24T05:15:45.686Z,-1.77
2019-02-24T05:18:17.086Z,-1.78
2019-02-24T05:20:47.791Z,-1.84
2019-02-24T05:23:37.778Z,-1.80
2019-02-24T05:26:07.933Z,-1.88
2019-02-24T05:28:57.413Z,-1.89
2019-02-24T05:31:46.965Z,-1.89
2019-02-24T05:34:36.518Z,-1.86
2019-02-24T05:37:06.650Z,-1.92
2019-02-24T05:39:57.768Z,-1.90
2019-02-24T05:42:53.466Z,-1.93
2019-02-24T05:45:23.646Z,-1.87
2019-02-24T05:48:13.317Z,-1.97
2019-02-24T05:50:43.655Z,-2.91
2019-02-24T05:53:32.875Z,-1.95
2019-02-24T05:56:04.079Z,-1.99
2019-02-24T05:58:34.876Z,-2.00
2019-02-24T06:01:05.046Z,-2.10
2019-02-24T06:03:35.664Z,-2.13
2019-02-24T06:06:07.559Z,-2.24
2019-02-24T06:08:57.297Z,-2.24
2019-02-24T06:11:27.397Z,-2.23
2019-02-24T06:14:16.868Z,-2.22
2019-02-24T06:17:06.240Z,-2.29
2019-02-24T06:19:47.702Z,-2.25
2019-02-24T06:23:20.648Z,-2.24
2019-02-24T06:25:50.992Z,-2.27
2019-02-24T06:28:23.937Z,-2.23
2019-02-24T06:31:13.453Z,-2.21
2019-02-24T06:34:08.877Z,-2.28
2019-02-24T06:36:39.071Z,-2.29
2019-02-24T06:39:09.582Z,-2.23
2019-02-24T06:41:51.047Z,-2.23
2019-02-24T06:44:21.932Z,-2.20
2019-02-24T06:46:55.426Z,-2.29
2019-02-24T06:49:26.014Z,-2.29
2019-02-24T06:51:56.144Z,-2.28
2019-02-24T06:54:26.338Z,-2.21
2019-02-24T06:56:56.832Z,-2.17
2019-02-24T06:59:26.953Z,-2.11
2019-02-24T07:01:57.290Z,-2.08
2019-02-24T07:04:46.503Z,-2.08
2019-02-24T07:07:16.618Z,-2.01
2019-02-24T07:09:46.995Z,-1.98
2019-02-24T07:12:36.197Z,-2.03
2019-02-24T07:15:25.602Z,-2.59
2019-02-24T07:18:14.806Z,-2.98
2019-02-24T07:20:45.074Z,-1.92
2019-02-24T07:23:16.044Z,-1.81
2019-02-24T07:25:46.751Z,-1.71
2019-02-24T07:28:37.057Z,-1.40
2019-02-24T07:31:26.563Z,-1.22
2019-02-24T07:34:16.290Z,-1.04
2019-02-24T07:36:47.335Z,-0.94
2019-02-24T07:39:38.327Z,-0.87
2019-02-24T07:42:20.689Z,-0.85
2019-02-24T07:48:10.608Z,-0.84
2019-02-24T07:50:41.144Z,-1.81
2019-02-24T07:53:13.137Z,-0.87
2019-02-24T07:55:43.734Z,-0.78
2019-02-24T07:58:32.978Z,-0.64
2019-02-24T08:01:23.071Z,-0.46
2019-02-24T08:06:54.381Z,-0.24
2019-02-24T08:09:28.178Z,-0.11
2019-02-24T08:11:58.961Z,-0.08
2019-02-24T08:15:07.295Z,-0.04
2019-02-24T08:17:40.546Z,0.16
2019-02-24T08:20:10.709Z,0.50
2019-02-24T08:22:41.200Z,0.75
2019-02-24T08:25:11.397Z,1.00
2019-02-24T08:27:41.597Z,1.31
2019-02-24T08:30:41.220Z,1.51
2019-02-24T08:33:05.965Z,1.94
2019-02-24T08:35:55.463Z,2.45
2019-02-24T08:38:44.659Z,2.63
2019-02-24T08:41:15.209Z,3.25
2019-02-24T08:43:45.365Z,3.68
2019-02-24T08:46:15.511Z,3.92
2019-02-24T08:48:45.758Z,4.20
2019-02-24T08:51:16.310Z,4.35
2019-02-24T08:53:47.329Z,4.68
2019-02-24T08:56:36.699Z,5.05
2019-02-24T08:59:26.123Z,4.93
2019-02-24T09:01:56.593Z,5.32
2019-02-24T09:04:27.032Z,5.97
2019-02-24T09:06:57.225Z,6.65
2019-02-24T09:09:27.364Z,7.01
2019-02-24T09:11:57.534Z,7.58
2019-02-24T09:14:27.868Z,8.49
2019-02-24T09:17:18.180Z,9.22
2019-02-24T09:19:49.023Z,9.30
2019-02-24T09:22:38.299Z,10.27
2019-02-24T09:25:28.046Z,11.43
2019-02-24T09:28:17.613Z,11.49
2019-02-24T09:30:48.232Z,12.57
2019-02-24T09:33:37.952Z,12.18
2019-02-24T09:36:27.710Z,12.35
2019-02-24T09:39:18.171Z,12.09
2019-02-24T09:42:07.614Z,12.33
2019-02-24T09:44:49.254Z,11.31
2019-02-24T09:47:20.129Z,10.26
2019-02-24T09:50:09.548Z,9.67
2019-02-24T09:52:59.310Z,9.47
2019-02-24T09:55:49.140Z,9.87
2019-02-24T09:58:37.400Z,9.75
2019-02-24T10:01:26.903Z,9.20
2019-02-24T10:04:16.097Z,9.05
2019-02-24T10:10:19.470Z,8.99
2019-02-24T10:12:51.275Z,8.97
2019-02-24T10:15:43.642Z,8.98
2019-02-24T10:18:32.868Z,9.13
2019-02-24T10:21:03.598Z,9.32
2019-02-24T10:23:53.116Z,9.87
2019-02-24T10:26:23.258Z,10.50
2019-02-24T10:29:13.345Z,10.83
2019-02-24T10:34:53.751Z,10.00
2019-02-24T10:37:44.124Z,9.95
2019-02-24T10:40:16.043Z,9.65
2019-02-24T10:43:08.290Z,9.41
2019-02-24T10:45:57.710Z,9.35
2019-02-24T10:49:09.390Z,9.13
2019-02-24T10:51:51.818Z,8.96
2019-02-24T10:54:28.633Z,9.13
2019-02-24T10:57:01.256Z,9.38
2019-02-24T10:59:52.418Z,9.59
2019-02-24T11:02:25.818Z,9.88
2019-02-24T11:04:56.026Z,9.99
2019-02-24T11:07:45.243Z,10.13
2019-02-24T11:10:38.606Z,10.22
2019-02-24T11:13:30.989Z,10.24
2019-02-24T11:16:27.214Z,10.15
2019-02-24T11:19:19.257Z,10.05
2019-02-24T11:21:51.931Z,9.95
2019-02-24T11:24:41.647Z,9.98
2019-02-24T11:27:13.747Z,9.97
2019-02-24T11:29:44.808Z,9.86
2019-02-24T11:32:17.130Z,9.75
2019-02-24T11:35:07.062Z,9.71
2019-02-24T11:37:40.747Z,9.72
2019-02-24T11:40:35.253Z,9.73
2019-02-24T11:46:21.508Z,9.80
2019-02-24T11:48:51.804Z,9.86
2019-02-24T11:51:34.642Z,9.91
2019-02-24T11:54:16.652Z,10.07
2019-02-24T11:57:05.789Z,10.07
2019-02-24T11:59:38.716Z,10.09
2019-02-24T12:02:34.171Z,10.13
2019-02-24T12:05:20.415Z,9.59
2019-02-24T12:07:54.980Z,10.17
2019-02-24T12:10:44.588Z,10.26
2019-02-24T12:13:35.174Z,10.40
2019-02-24T12:16:47.971Z,10.40
2019-02-24T12:19:37.165Z,10.42
2019-02-24T12:22:08.210Z,10.43
2019-02-24T12:25:00.952Z,10.43
2019-02-24T12:27:32.331Z,10.43
2019-02-24T12:30:24.049Z,10.42
2019-02-24T12:33:13.668Z,10.47
2019-02-24T12:36:03.722Z,10.53
2019-02-24T12:38:53.270Z,10.49
2019-02-24T12:42:02.454Z,9.81
2019-02-24T12:45:12.520Z,10.54
2019-02-24T12:48:03.390Z,10.71
2019-02-24T12:50:33.787Z,10.80
2019-02-24T12:53:05.238Z,11.00
2019-02-24T12:55:54.456Z,11.15
2019-02-24T12:58:25.495Z,12.45
2019-02-24T13:00:59.507Z,14.27
2019-02-24T13:03:30.428Z,14.61
2019-02-24T13:06:21.642Z,14.50
2019-02-24T13:09:11.210Z,13.62
2019-02-24T13:11:41.406Z,13.50
2019-02-24T13:14:31.867Z,13.17
2019-02-24T13:17:02.049Z,13.06
2019-02-24T13:19:52.120Z,13.22
2019-02-24T13:22:41.332Z,13.40
2019-02-24T13:25:11.558Z,13.51
2019-02-24T13:28:00.883Z,13.36
2019-02-24T13:30:42.689Z,13.34
2019-02-24T13:33:22.897Z,13.48
2019-02-24T13:35:53.318Z,13.62
2019-02-24T13:38:42.592Z,13.94
2019-02-24T13:41:32.086Z,13.89
2019-02-24T13:44:21.468Z,13.62
2019-02-24T13:46:55.209Z,13.16
2019-02-24T13:49:44.440Z,12.98
2019-02-24T13:52:33.617Z,12.77
2019-02-24T13:55:24.142Z,12.59
2019-02-24T13:58:13.583Z,12.46
2019-02-24T14:01:03.411Z,12.40
2019-02-24T14:03:33.729Z,12.41
2019-02-24T14:06:22.893Z,12.43
2019-02-24T14:08:53.225Z,12.46
2019-02-24T14:11:43.613Z,12.49
2019-02-24T14:14:20.925Z,12.84
2019-02-24T14:16:54.146Z,13.25
2019-02-24T14:19:43.614Z,13.14
2019-02-24T14:22:13.948Z,12.99
2019-02-24T14:25:03.306Z,12.95
2019-02-24T14:27:33.655Z,12.84
2019-02-24T14:30:14.079Z,12.82
2019-02-24T14:33:03.844Z,12.89
2019-02-24T14:35:34.226Z,12.91
2019-02-24T14:38:04.632Z,13.05
2019-02-24T14:40:54.395Z,13.05
2019-02-24T14:43:43.701Z,13.03
2019-02-24T14:46:33.043Z,13.08
2019-02-24T14:49:22.943Z,13.43
2019-02-24T14:52:12.484Z,13.59
2019-02-24T14:55:03.983Z,14.11
2019-02-24T14:57:52.686Z,15.52
2019-02-24T15:01:03.730Z,16.20
2019-02-24T15:03:33.774Z,17.31
2019-02-24T15:09:21.180Z,18.65
2019-02-24T15:11:51.348Z,17.12
2019-02-24T15:14:40.515Z,15.68
2019-02-24T15:17:30.080Z,14.94
2019-02-24T15:22:51.973Z,13.94
2019-02-24T15:25:41.169Z,14.17
2019-02-24T15:28:12.646Z,16.23
2019-02-24T15:30:42.736Z,16.17
2019-02-24T15:33:13.088Z,15.63
2019-02-24T15:35:44.132Z,15.26
2019-02-24T15:38:33.516Z,14.87
2019-02-24T15:41:29.580Z,14.62
2019-02-24T15:43:55.125Z,15.06
2019-02-24T15:46:46.120Z,14.37
2019-02-24T15:49:16.313Z,13.91
2019-02-24T15:52:09.974Z,13.47
2019-02-24T15:54:39.367Z,13.11
2019-02-24T15:57:10.439Z,12.93
2019-02-24T15:59:40.595Z,12.83
2019-02-24T16:02:10.754Z,12.60
2019-02-24T16:04:40.919Z,12.43
2019-02-24T16:07:30.391Z,12.38
2019-02-24T16:10:21.271Z,12.19
2019-02-24T16:13:16.709Z,12.10
2019-02-24T16:15:43.606Z,11.34
2019-02-24T16:18:14.297Z,12.04
2019-02-24T16:20:44.915Z,11.96
2019-02-24T16:23:15.541Z,11.88
2019-02-24T16:25:46.065Z,11.92
2019-02-24T16:28:16.349Z,11.86
2019-02-24T16:30:47.580Z,11.76
2019-02-24T16:33:17.806Z,11.65
2019-02-24T16:35:48.331Z,11.32
2019-02-24T16:38:38.083Z,11.05
2019-02-24T16:41:08.333Z,10.73
2019-02-24T16:43:38.670Z,10.45
2019-02-24T16:46:27.846Z,10.28
2019-02-24T16:49:18.530Z,10.12
2019-02-24T16:51:49.027Z,9.86
2019-02-24T16:54:41.623Z,9.75
2019-02-24T16:57:31.778Z,9.68
2019-02-24T17:00:21.423Z,9.68
2019-02-24T17:02:51.704Z,9.49
2019-02-24T17:05:41.076Z,9.33
2019-02-24T17:08:11.524Z,9.07
2019-02-24T17:10:42.122Z,8.89
2019-02-24T17:13:12.465Z,8.85
2019-02-24T17:16:01.978Z,8.90
2019-02-24T17:18:32.204Z,8.68
2019-02-24T17:21:02.957Z,8.33
2019-02-24T17:23:53.080Z,8.25
2019-02-24T17:26:24.788Z,8.22
2019-02-24T17:28:55.130Z,8.32
2019-02-24T17:31:28.767Z,8.28
2019-02-24T17:33:59.507Z,8.27
2019-02-24T17:36:29.786Z,8.42
2019-02-24T17:42:34.124Z,8.14
2019-02-24T17:45:06.688Z,8.02
2019-02-24T17:47:38.428Z,7.91
2019-02-24T17:50:10.847Z,7.76
2019-02-24T17:52:42.779Z,7.70
2019-02-24T17:55:15.479Z,7.72
2019-02-24T17:57:50.188Z,7.70
2019-02-24T18:00:28.849Z,7.64
2019-02-24T18:03:01.912Z,7.52
2019-02-24T18:05:32.728Z,7.40
2019-02-24T18:08:05.266Z,7.25
2019-02-24T18:10:55.100Z,7.06
2019-02-24T18:13:31.130Z,6.93
2019-02-24T18:16:01.931Z,6.80
2019-02-24T18:18:33.259Z,6.71
2019-02-24T18:21:06.544Z,6.63
2019-02-24T18:23:37.676Z,6.54
2019-02-24T19:07:28.662Z,5.65
2019-02-24T19:09:56.107Z,5.67
2019-02-24T19:12:27.351Z,5.64
2019-02-24T19:14:59.403Z,5.61
2019-02-24T19:17:31.125Z,5.69
2019-02-24T19:20:01.747Z,5.76
2019-02-24T19:22:53.292Z,5.64
2019-02-24T19:31:49.050Z,5.46
2019-02-24T19:34:30.446Z,5.31
2019-02-24T19:39:52.673Z,5.29
2019-02-24T19:42:24.153Z,5.26
2019-02-24T19:45:15.970Z,5.15
2019-02-24T19:47:46.897Z,5.12
2019-02-24T19:50:36.692Z,5.02
2019-02-24T19:53:27.516Z,4.95
2019-02-24T19:55:58.786Z,4.94
2019-02-24T19:59:06.895Z,5.06
2019-02-24T20:02:02.108Z,4.97
2019-02-24T20:04:36.310Z,4.92
2019-02-24T20:10:22.883Z,4.44
2019-02-24T20:13:12.581Z,4.40
2019-02-24T20:16:14.272Z,4.42
2019-02-24T20:18:54.812Z,4.39
2019-02-24T20:22:04.714Z,4.30
2019-02-24T20:24:35.386Z,4.21
2019-02-24T20:27:24.957Z,4.12
2019-02-24T20:30:15.755Z,4.01
2019-02-24T20:32:49.750Z,3.92
2019-02-24T20:38:17.531Z,3.82
2019-02-24T20:40:53.758Z,3.86
2019-02-24T20:43:44.158Z,3.92
2019-02-24T20:46:17.207Z,3.93
2019-02-24T20:49:07.088Z,3.84
2019-02-24T20:52:16.606Z,3.88
2019-02-24T20:54:52.739Z,3.93
2019-02-24T21:00:59.902Z,3.87
2019-02-24T21:06:45.930Z,3.95
2019-02-24T21:09:16.226Z,3.80
2019-02-24T21:17:55.176Z,3.54
2019-02-24T21:20:26.738Z,3.55
2019-02-24T21:22:57.095Z,3.53
2019-02-24T21:25:28.565Z,3.50
2019-02-24T21:28:17.773Z,3.59
2019-02-24T21:31:10.256Z,3.53
2019-02-24T21:33:59.423Z,3.44
2019-02-24T21:36:41.191Z,3.34
2019-02-24T21:39:11.341Z,3.35
2019-02-24T21:41:41.638Z,3.35
2019-02-24T21:44:31.173Z,3.30
2019-02-24T21:47:20.491Z,3.29
2019-02-24T21:49:50.791Z,3.21
2019-02-24T21:52:39.914Z,3.07
2019-02-24T21:55:29.353Z,3.06
2019-02-24T21:58:11.408Z,3.02
2019-02-24T22:00:51.523Z,2.90
2019-02-24T22:03:40.743Z,2.85
2019-02-24T22:06:11.001Z,2.80
2019-02-24T22:09:01.375Z,2.73
2019-02-24T22:11:31.527Z,2.70
2019-02-24T22:14:21.020Z,2.70
2019-02-24T22:17:10.374Z,2.77
2019-02-24T22:19:40.529Z,1.90
2019-02-24T22:22:11.131Z,2.69
2019-02-24T22:24:41.239Z,2.60
2019-02-24T22:27:30.534Z,2.55
2019-02-24T22:30:20.048Z,2.61
2019-02-24T22:33:09.535Z,2.56
2019-02-24T22:35:39.719Z,2.52
2019-02-24T22:38:29.210Z,2.41
2019-02-24T22:40:59.452Z,2.41
2019-02-24T22:43:48.908Z,2.37
2019-02-24T22:46:38.348Z,2.37
2019-02-24T22:49:27.597Z,1.35
2019-02-24T22:52:17.107Z,2.33
2019-02-24T22:54:47.293Z,2.21
2019-02-24T22:57:36.799Z,2.18
2019-02-24T23:04:12.337Z,2.07
2019-02-24T23:06:42.826Z,1.28
2019-02-24T23:09:17.753Z,2.00
2019-02-24T23:11:48.080Z,1.96
2019-02-24T23:14:37.549Z,1.91
2019-02-24T23:17:07.718Z,1.90
2019-02-24T23:19:57.167Z,1.80
2019-02-24T23:22:46.845Z,1.80
2019-02-24T23:25:36.392Z,1.67
2019-02-24T23:28:06.528Z,1.69
2019-02-24T23:30:55.970Z,1.69
2019-02-24T23:33:26.689Z,1.69
2019-02-24T23:35:57.592Z,1.62
2019-02-24T23:38:39.293Z,1.65
2019-02-24T23:44:12.232Z,1.61
2019-02-24T23:47:01.684Z,1.55
2019-02-24T23:53:01.810Z,1.47
2019-02-24T23:55:51.267Z,1.39
2019-02-24T23:58:40.757Z,1.38
